Time;durP1;ratioP1;P1;durP2;ratioP2;P2;SDS_P1;SDS_P2;PMS_P1;PMS_P2;Temp;Humidity;BMP_temperature;BMP_pressure;BME280_temperature;BME280_humidity;BME280_pressure;Samples;Min_cycle;Max_cycle;Signal;HPM_P1;HPM_P2
2021/03/26 00:01:05;;;;;;;45.10;28.25;;;10.20;99.90;;;;;;4959687;28;20105;-73
2021/03/26 00:03:34;;;;;;;44.90;27.00;;;10.20;99.90;;;;;;4960686;28;20027;-73
2021/03/26 00:06:04;;;;;;;46.83;28.75;;;10.10;99.90;;;;;;4965541;28;20018;-73
2021/03/26 00:08:30;;;;;;;51.30;30.08;;;10.10;99.90;;;;;;4942847;28;20549;-72
2021/03/26 00:10:56;;;;;;;47.92;27.98;;;10.00;99.90;;;;;;4963508;28;20034;-73
2021/03/26 00:13:21;;;;;;;51.20;30.95;;;10.00;99.90;;;;;;4966052;28;20027;-72
2021/03/26 00:15:47;;;;;;;48.70;28.60;;;10.00;99.90;;;;;;4963607;28;20849;-74
2021/03/26 00:18:13;;;;;;;51.88;30.38;;;10.00;99.90;;;;;;4967710;28;20066;-72
2021/03/26 00:20:38;;;;;;;45.95;26.65;;;10.00;99.90;;;;;;4969335;28;20066;-73
2021/03/26 00:23:05;;;;;;;50.47;28.65;;;9.90;99.90;;;;;;4967901;28;20029;-73
2021/03/26 00:25:31;;;;;;;53.13;29.55;;;10.00;99.90;;;;;;4965021;28;20082;-72
2021/03/26 00:27:57;;;;;;;49.65;28.60;;;10.00;99.90;;;;;;4971030;28;20109;-73
2021/03/26 00:30:23;;;;;;;50.08;28.48;;;9.90;99.90;;;;;;4969189;28;20035;-73
2021/03/26 00:32:49;;;;;;;52.78;30.02;;;9.90;99.90;;;;;;4970498;28;20031;-72
2021/03/26 00:35:16;;;;;;;52.70;30.75;;;9.90;99.90;;;;;;4962711;28;20130;-72
2021/03/26 00:37:42;;;;;;;50.20;29.98;;;9.80;99.90;;;;;;4961946;28;20218;-72
2021/03/26 00:40:11;;;;;;;55.38;32.40;;;9.80;99.90;;;;;;4963821;28;20506;-72
2021/03/26 00:42:37;;;;;;;56.00;31.00;;;9.80;99.90;;;;;;4967676;28;20034;-73
2021/03/26 00:45:05;;;;;;;45.95;28.45;;;9.80;99.90;;;;;;4964479;28;20535;-73
2021/03/26 00:47:31;;;;;;;56.55;30.80;;;9.80;99.90;;;;;;4949283;28;20404;-72
2021/03/26 00:49:56;;;;;;;52.88;30.23;;;9.80;99.90;;;;;;4961289;28;20024;-71
2021/03/26 00:52:22;;;;;;;47.65;28.92;;;9.80;99.90;;;;;;4970519;28;20090;-71
2021/03/26 00:54:48;;;;;;;49.63;29.88;;;9.80;99.90;;;;;;4963362;28;20027;-72
2021/03/26 00:57:14;;;;;;;52.72;31.17;;;9.80;99.90;;;;;;4968188;28;20399;-72
2021/03/26 00:59:39;;;;;;;49.80;30.17;;;9.80;99.90;;;;;;4970323;28;20089;-73
2021/03/26 01:02:05;;;;;;;53.88;31.67;;;9.70;99.90;;;;;;4966101;28;20026;-73
2021/03/26 01:04:31;;;;;;;54.75;31.55;;;9.70;99.90;;;;;;4966941;28;20117;-72
2021/03/26 01:06:56;;;;;;;54.10;31.00;;;9.70;99.90;;;;;;4961239;28;20034;-72
2021/03/26 01:09:22;;;;;;;52.00;29.52;;;9.60;99.90;;;;;;4965381;28;20054;-72
2021/03/26 01:11:47;;;;;;;57.55;33.00;;;9.70;99.90;;;;;;4965073;28;20034;-74
2021/03/26 01:14:17;;;;;;;56.05;32.95;;;9.60;99.90;;;;;;4961291;28;20395;-73
2021/03/26 01:16:43;;;;;;;58.20;31.10;;;9.60;99.90;;;;;;4964327;28;20528;-73
2021/03/26 01:19:10;;;;;;;53.88;31.67;;;9.70;99.90;;;;;;4963744;28;20634;-72
2021/03/26 01:21:38;;;;;;;55.60;32.33;;;9.70;99.90;;;;;;4951772;28;20023;-74
2021/03/26 01:24:06;;;;;;;56.70;34.72;;;9.60;99.90;;;;;;4956536;28;20023;-73
2021/03/26 01:26:32;;;;;;;54.17;32.85;;;9.50;99.90;;;;;;4968603;28;20042;-72
2021/03/26 01:28:57;;;;;;;56.67;33.75;;;9.50;99.90;;;;;;4962152;28;20384;-72
2021/03/26 01:31:24;;;;;;;53.63;30.95;;;9.50;99.90;;;;;;4973052;28;20360;-72
2021/03/26 01:33:50;;;;;;;52.72;32.00;;;9.50;99.90;;;;;;4974817;28;20031;-72
2021/03/26 01:36:16;;;;;;;55.35;32.05;;;9.50;99.90;;;;;;4971245;28;20041;-73
2021/03/26 01:38:42;;;;;;;58.03;32.97;;;9.50;99.90;;;;;;4962531;28;20023;-74
2021/03/26 01:41:15;;;;;;;56.75;32.38;;;9.50;99.90;;;;;;4966769;28;20121;-73
2021/03/26 01:43:43;;;;;;;56.38;32.67;;;9.50;99.90;;;;;;4963448;28;20051;-73
2021/03/26 01:46:12;;;;;;;51.85;31.35;;;9.50;99.90;;;;;;4972452;28;20023;-72
2021/03/26 01:48:49;;;;;;;56.67;31.30;;;9.40;99.90;;;;;;4951415;28;20053;-74
2021/03/26 01:51:22;;;;;;;57.33;31.25;;;9.40;99.90;;;;;;4955021;28;20110;-73
2021/03/26 01:53:48;;;;;;;55.70;31.75;;;9.40;99.90;;;;;;4960122;28;20031;-75
2021/03/26 01:56:15;;;;;;;57.55;32.55;;;9.40;99.90;;;;;;4962914;28;20039;-74
2021/03/26 01:58:41;;;;;;;57.95;33.25;;;9.30;99.90;;;;;;4965657;28;20035;-73
2021/03/26 02:01:37;;;;;;;51.53;29.60;;;9.30;99.90;;;;;;4965173;28;20495;-73
2021/03/26 02:04:06;;;;;;;53.38;29.73;;;9.20;99.90;;;;;;4948537;28;20118;-74
2021/03/26 02:06:37;;;;;;;58.50;32.50;;;9.20;99.90;;;;;;4968651;28;20499;-74
2021/03/26 02:09:16;;;;;;;65.95;33.88;;;9.20;99.90;;;;;;4967272;28;20030;-73
2021/03/26 02:11:59;;;;;;;60.83;36.28;;;9.20;99.90;;;;;;4964566;28;20530;-74
2021/03/26 02:14:34;;;;;;;62.45;32.70;;;9.20;99.90;;;;;;4971565;28;20031;-74
2021/03/26 02:17:00;;;;;;;54.90;31.77;;;9.20;99.90;;;;;;4967650;28;20476;-72
2021/03/26 02:19:31;;;;;;;63.70;33.95;;;9.10;99.90;;;;;;4970496;28;20034;-75
2021/03/26 02:21:57;;;;;;;54.30;30.38;;;9.10;99.90;;;;;;4972706;28;20074;-72
2021/03/26 02:24:25;;;;;;;50.67;31.13;;;9.20;99.90;;;;;;4972238;28;20028;-74
2021/03/26 02:26:54;;;;;;;63.17;33.10;;;9.20;99.90;;;;;;4972456;28;20027;-73
2021/03/26 02:29:23;;;;;;;59.42;31.65;;;9.20;99.90;;;;;;4963957;28;20472;-73
2021/03/26 02:31:56;;;;;;;59.25;32.90;;;9.20;99.90;;;;;;4965629;28;20062;-73
2021/03/26 02:34:22;;;;;;;55.58;30.77;;;9.10;99.90;;;;;;4964940;28;20038;-74
2021/03/26 02:36:53;;;;;;;52.10;30.17;;;9.10;99.90;;;;;;4967660;28;20969;-73
2021/03/26 02:39:33;;;;;;;61.35;34.22;;;9.10;99.90;;;;;;4965641;28;20027;-73
2021/03/26 02:42:03;;;;;;;60.35;32.55;;;9.10;99.90;;;;;;4971916;28;20509;-72
2021/03/26 02:44:51;;;;;;;59.85;33.35;;;9.10;99.90;;;;;;4969572;28;20027;-74
2021/03/26 02:47:25;;;;;;;65.45;35.90;;;9.10;99.90;;;;;;4965709;28;20054;-73
2021/03/26 02:50:13;;;;;;;58.55;32.22;;;9.10;99.90;;;;;;4966735;28;20038;-72
2021/03/26 02:52:58;;;;;;;55.42;32.08;;;9.10;99.90;;;;;;4967265;28;20023;-73
2021/03/26 02:55:44;;;;;;;69.97;37.10;;;9.10;99.90;;;;;;4947228;28;20047;-74
2021/03/26 02:58:18;;;;;;;63.10;33.97;;;9.00;99.90;;;;;;4965846;28;20031;-73
2021/03/26 03:00:53;;;;;;;64.28;36.60;;;9.00;99.90;;;;;;4962455;28;20049;-74
2021/03/26 03:03:25;;;;;;;58.08;35.33;;;9.10;99.90;;;;;;4961363;28;20038;-73
2021/03/26 03:06:15;;;;;;;63.25;34.97;;;9.00;99.90;;;;;;4965444;28;20046;-73
2021/03/26 03:08:42;;;;;;;61.83;34.80;;;9.10;99.90;;;;;;4968711;28;20023;-73
2021/03/26 03:11:33;;;;;;;61.75;33.97;;;9.00;99.90;;;;;;4960717;28;20103;-74
2021/03/26 03:14:15;;;;;;;65.80;34.65;;;9.00;99.90;;;;;;4947156;28;20027;-73
2021/03/26 03:16:54;;;;;;;63.67;35.15;;;9.00;99.90;;;;;;4965708;28;20035;-74
2021/03/26 03:19:58;;;;;;;70.25;39.28;;;9.00;99.90;;;;;;4962890;28;20512;-74
2021/03/26 03:22:43;;;;;;;71.28;36.72;;;9.00;99.90;;;;;;4928413;28;20067;-74
2021/03/26 03:25:14;;;;;;;62.55;34.70;;;8.90;99.90;;;;;;4965654;28;20023;-74
2021/03/26 03:27:58;;;;;;;68.15;37.00;;;9.00;99.90;;;;;;4949421;29;20058;-75
2021/03/26 03:31:01;;;;;;;71.18;39.05;;;8.90;99.90;;;;;;4941851;29;20039;-73
2021/03/26 03:33:31;;;;;;;;;;;8.90;99.90;;;;;;4957890;28;20217;-72
2021/03/26 03:36:19;;;;;;;68.45;34.42;;;9.00;99.90;;;;;;4964326;28;19922;-74
2021/03/26 03:39:04;;;;;;;72.55;36.53;;;9.00;99.90;;;;;;4960035;28;20035;-75
2021/03/26 03:41:40;;;;;;;71.53;38.13;;;8.90;99.90;;;;;;4963637;28;20038;-74
2021/03/26 03:44:13;;;;;;;70.55;36.55;;;8.80;99.90;;;;;;4963681;28;20015;-74
2021/03/26 03:47:05;;;;;;;77.30;39.28;;;8.70;99.90;;;;;;4967060;28;20041;-75
2021/03/26 03:50:01;;;;;;;70.72;37.40;;;8.70;99.90;;;;;;4969508;28;20074;-75
2021/03/26 03:52:49;;;;;;;70.97;38.20;;;8.70;99.90;;;;;;4951806;28;20115;-75
2021/03/26 03:55:26;;;;;;;72.40;38.10;;;8.50;99.90;;;;;;4960923;28;20127;-75
2021/03/26 03:58:15;;;;;;;75.07;39.03;;;8.50;99.90;;;;;;4964600;28;20089;-75
2021/03/26 04:00:52;;;;;;;77.30;40.88;;;8.60;99.90;;;;;;4964143;28;20058;-75
2021/03/26 04:03:27;;;;;;;70.10;38.25;;;8.60;99.90;;;;;;4961887;28;20106;-74
2021/03/26 04:05:57;;;;;;;71.40;39.25;;;8.60;99.90;;;;;;4966766;28;20035;-74
2021/03/26 04:08:29;;;;;;;70.75;38.63;;;8.60;99.90;;;;;;4959186;28;20023;-74
2021/03/26 04:11:06;;;;;;;68.50;38.05;;;8.60;99.90;;;;;;4959494;28;20045;-74
2021/03/26 04:13:41;;;;;;;73.95;39.72;;;8.50;99.90;;;;;;4947889;28;20031;-74
2021/03/26 04:16:10;;;;;;;71.50;37.25;;;8.60;99.90;;;;;;4965257;28;20034;-74
2021/03/26 04:18:49;;;;;;;75.05;39.50;;;8.50;99.90;;;;;;4961791;28;20087;-74
2021/03/26 04:21:21;;;;;;;71.20;40.08;;;8.50;99.90;;;;;;4962988;28;20066;-74
2021/03/26 04:24:00;;;;;;;76.25;40.13;;;8.50;99.90;;;;;;4957560;28;20027;-74
2021/03/26 04:26:33;;;;;;;71.32;37.20;;;8.60;99.90;;;;;;4960472;28;20046;-74
2021/03/26 04:29:31;;;;;;;81.80;41.38;;;8.60;99.90;;;;;;4960259;28;20098;-74
2021/03/26 04:32:05;;;;;;;68.40;37.55;;;8.60;99.90;;;;;;4927318;28;20546;-74
2021/03/26 04:34:31;;;;;;;70.68;39.38;;;8.60;99.90;;;;;;4952397;28;20038;-75
2021/03/26 04:37:06;;;;;;;75.32;38.70;;;8.50;99.90;;;;;;4965947;28;20042;-74
2021/03/26 04:39:47;;;;;;;76.80;39.63;;;8.60;99.90;;;;;;4963240;28;20032;-75
2021/03/26 04:42:41;;;;;;;76.68;41.80;;;8.60;99.90;;;;;;4962594;28;20392;-75
2021/03/26 04:45:38;;;;;;;85.82;42.75;;;8.60;99.90;;;;;;4962453;28;20027;-75
2021/03/26 04:48:29;;;;;;;75.18;38.88;;;8.60;99.90;;;;;;4963335;28;20042;-75
2021/03/26 04:51:11;;;;;;;84.85;41.33;;;8.60;99.90;;;;;;4960453;28;20023;-74
2021/03/26 04:53:51;;;;;;;72.13;37.05;;;8.60;99.90;;;;;;4963661;28;20039;-75
2021/03/26 04:56:22;;;;;;;70.43;39.08;;;8.60;99.90;;;;;;4961631;28;20034;-73
2021/03/26 04:58:53;;;;;;;80.85;40.30;;;8.60;99.90;;;;;;4960494;28;20106;-75
2021/03/26 05:01:20;;;;;;;79.90;39.08;;;8.60;99.90;;;;;;4962054;28;20027;-74
2021/03/26 05:04:09;;;;;;;72.13;38.97;;;8.60;99.90;;;;;;4961362;28;20170;-74
2021/03/26 05:06:40;;;;;;;77.85;41.45;;;8.60;99.90;;;;;;4948334;28;20035;-73
2021/03/26 05:09:11;;;;;;;73.97;38.42;;;8.60;99.90;;;;;;4959486;28;20166;-74
2021/03/26 05:11:43;;;;;;;84.53;40.50;;;8.60;99.90;;;;;;4962475;28;20484;-74
2021/03/26 05:14:14;;;;;;;80.55;41.78;;;8.60;99.90;;;;;;4972064;28;20502;-74
2021/03/26 05:16:46;;;;;;;78.88;40.80;;;8.60;99.90;;;;;;4958624;28;20035;-74
2021/03/26 05:19:52;;;;;;;77.63;39.97;;;8.60;99.90;;;;;;4970143;28;20027;-75
2021/03/26 05:22:44;;;;;;;79.20;40.50;;;8.60;99.90;;;;;;4921689;28;20043;-74
2021/03/26 05:25:14;;;;;;;76.63;39.22;;;8.60;99.90;;;;;;4963958;28;20428;-75
2021/03/26 05:27:40;;;;;;;71.15;38.25;;;8.60;99.90;;;;;;4957687;28;20086;-75
2021/03/26 05:30:08;;;;;;;77.75;38.08;;;8.60;99.90;;;;;;4967546;28;20023;-74
2021/03/26 05:32:44;;;;;;;75.30;37.47;;;8.60;99.90;;;;;;4957342;28;20020;-74
2021/03/26 05:35:34;;;;;;;79.07;39.20;;;8.60;99.90;;;;;;4961041;28;20567;-74
2021/03/26 05:38:12;;;;;;;77.10;38.13;;;8.50;99.90;;;;;;4963439;28;20027;-74
2021/03/26 05:40:47;;;;;;;80.18;38.42;;;8.50;99.90;;;;;;4968734;28;20035;-74
2021/03/26 05:43:37;;;;;;;77.90;38.22;;;8.50;99.90;;;;;;4960558;28;20035;-74
2021/03/26 05:46:27;;;;;;;75.32;41.80;;;8.60;99.90;;;;;;4955792;28;20035;-74
2021/03/26 05:49:03;;;;;;;79.30;40.72;;;8.50;99.90;;;;;;4964367;28;20377;-74
2021/03/26 05:51:36;;;;;;;86.32;41.42;;;8.50;99.90;;;;;;4966351;28;20026;-74
2021/03/26 05:54:35;;;;;;;71.05;38.80;;;8.60;99.90;;;;;;4957780;28;20027;-75
2021/03/26 05:57:16;;;;;;;70.07;38.97;;;8.50;99.90;;;;;;4963499;28;20035;-73
2021/03/26 05:59:50;;;;;;;72.05;38.17;;;8.60;99.90;;;;;;4961496;28;20031;-73
2021/03/26 06:02:31;;;;;;;72.35;37.55;;;8.50;99.90;;;;;;4962596;28;20043;-72
2021/03/26 06:05:15;;;;;;;72.60;36.05;;;8.60;99.90;;;;;;4957650;28;20022;-73
2021/03/26 06:08:04;;;;;;;73.03;39.78;;;8.60;99.90;;;;;;4947501;28;20588;-74
2021/03/26 06:11:06;;;;;;;74.35;38.15;;;8.60;99.90;;;;;;4955874;28;20064;-73
2021/03/26 06:13:45;;;;;;;65.85;37.95;;;8.60;99.90;;;;;;4967265;28;20070;-74
2021/03/26 06:16:23;;;;;;;73.38;41.72;;;8.50;99.90;;;;;;4962853;28;20502;-74
2021/03/26 06:18:51;;;;;;;71.78;39.75;;;8.60;99.90;;;;;;4974000;28;20023;-74
2021/03/26 06:21:59;;;;;;;73.47;38.08;;;8.60;99.90;;;;;;4969350;28;20085;-74
2021/03/26 06:24:49;;;;;;;64.97;36.47;;;8.70;99.90;;;;;;4965182;28;20472;-74
2021/03/26 06:27:14;;;;;;;77.93;39.72;;;8.60;99.90;;;;;;4965560;28;20027;-74
2021/03/26 06:29:54;;;;;;;73.35;38.60;;;8.80;99.90;;;;;;4964185;28;20031;-74
2021/03/26 06:32:50;;;;;;;72.75;40.17;;;8.70;99.90;;;;;;4969803;28;20098;-73
2021/03/26 06:35:45;;;;;;;72.53;39.60;;;8.70;99.90;;;;;;4958189;28;20027;-74
2021/03/26 06:38:32;;;;;;;72.90;39.30;;;8.60;99.90;;;;;;4966975;28;20035;-74
2021/03/26 06:41:35;;;;;;;76.13;39.67;;;8.70;99.90;;;;;;4961424;28;20047;-72
2021/03/26 06:44:12;;;;;;;71.35;40.40;;;8.80;99.90;;;;;;4969361;28;20029;-73
2021/03/26 06:46:46;;;;;;;78.82;41.15;;;8.90;99.90;;;;;;4965530;28;20023;-72
2021/03/26 06:49:51;;;;;;;70.68;38.22;;;8.90;99.90;;;;;;4968021;28;20030;-73
2021/03/26 06:52:16;;;;;;;69.45;38.13;;;8.80;99.90;;;;;;4951191;28;20035;-72
2021/03/26 06:55:01;;;;;;;63.38;34.70;;;8.90;99.90;;;;;;4962371;28;20046;-72
2021/03/26 06:57:57;;;;;;;66.05;36.58;;;8.90;99.90;;;;;;4966532;28;20041;-72
2021/03/26 07:00:34;;;;;;;70.65;39.38;;;9.00;99.90;;;;;;4968505;28;20033;-74
2021/03/26 07:03:08;;;;;;;69.40;38.55;;;9.10;99.90;;;;;;4961867;28;20082;-71
2021/03/26 07:06:18;;;;;;;68.20;37.65;;;9.20;99.90;;;;;;4961337;28;20018;-70
2021/03/26 07:09:03;;;;;;;65.10;38.88;;;9.20;99.90;;;;;;4965117;28;20031;-70
2021/03/26 07:11:54;;;;;;;64.07;36.70;;;9.30;99.90;;;;;;4963105;28;20043;-71
2021/03/26 07:14:34;;;;;;;64.82;36.28;;;9.40;99.90;;;;;;4965023;28;20022;-70
2021/03/26 07:17:06;;;;;;;58.35;34.05;;;9.40;99.90;;;;;;4967130;28;20090;-70
2021/03/26 07:20:11;;;;;;;61.23;34.80;;;9.50;99.90;;;;;;4966278;28;20070;-70
2021/03/26 07:22:58;;;;;;;61.65;36.75;;;9.50;99.90;;;;;;4958880;28;20035;-69
2021/03/26 07:25:51;;;;;;;67.68;36.17;;;9.60;99.90;;;;;;4958350;28;20030;-71
2021/03/26 07:28:40;;;;;;;55.35;32.88;;;9.60;99.90;;;;;;4967900;28;20031;-72
2021/03/26 07:31:29;;;;;;;58.47;30.95;;;9.70;99.90;;;;;;4966830;28;20158;-70
2021/03/26 07:34:11;;;;;;;59.85;32.35;;;9.80;99.90;;;;;;4956516;28;20475;-74
2021/03/26 07:36:54;;;;;;;51.42;28.40;;;9.90;99.90;;;;;;4963527;28;20043;-75
2021/03/26 07:39:42;;;;;;;50.42;30.38;;;9.90;99.90;;;;;;4967524;28;20026;-74
2021/03/26 07:42:11;;;;;;;49.53;30.00;;;10.00;99.90;;;;;;4962056;28;20365;-74
2021/03/26 07:44:55;;;;;;;51.47;30.33;;;10.10;99.90;;;;;;4960391;28;20608;-74
2021/03/26 07:47:44;;;;;;;52.10;29.58;;;10.20;99.90;;;;;;4959384;28;20054;-74
2021/03/26 07:50:32;;;;;;;51.80;29.58;;;10.30;99.90;;;;;;4939844;28;20042;-74
2021/03/26 07:53:17;;;;;;;50.78;30.35;;;10.50;99.90;;;;;;4963126;28;20031;-74
2021/03/26 07:56:04;;;;;;;45.95;27.75;;;10.60;99.90;;;;;;4959717;28;20126;-74
2021/03/26 07:58:43;;;;;;;45.58;25.85;;;10.60;99.90;;;;;;4964055;28;20073;-74
2021/03/26 08:01:30;;;;;;;42.63;25.83;;;10.80;99.90;;;;;;4964851;28;20411;-75
2021/03/26 08:04:08;;;;;;;45.55;27.42;;;10.90;99.90;;;;;;4949978;28;20038;-72
2021/03/26 08:06:58;;;;;;;45.63;26.92;;;11.10;99.90;;;;;;4965356;28;20475;-74
2021/03/26 08:09:29;;;;;;;42.10;27.45;;;11.30;99.90;;;;;;4961011;28;20024;-74
2021/03/26 08:12:17;;;;;;;43.08;25.55;;;11.40;99.90;;;;;;4951741;28;20101;-74
2021/03/26 08:15:05;;;;;;;41.05;23.95;;;11.50;99.90;;;;;;4959539;28;20561;-74
2021/03/26 08:17:48;;;;;;;42.53;24.08;;;11.60;99.90;;;;;;4966573;28;20557;-74
2021/03/26 08:20:40;;;;;;;42.05;25.25;;;11.70;99.90;;;;;;4967129;28;20023;-74
2021/03/26 08:23:25;;;;;;;37.22;21.45;;;11.80;99.90;;;;;;4953943;28;20082;-74
2021/03/26 08:26:07;;;;;;;40.67;23.98;;;11.90;99.90;;;;;;4962657;28;20157;-74
2021/03/26 08:28:49;;;;;;;33.88;22.15;;;12.00;99.90;;;;;;4948185;28;20035;-74
2021/03/26 08:31:52;;;;;;;32.17;19.73;;;12.20;99.90;;;;;;4958625;28;20392;-74
2021/03/26 08:34:27;;;;;;;36.33;20.35;;;12.30;99.90;;;;;;4964049;28;20037;-75
2021/03/26 08:37:01;;;;;;;29.63;17.92;;;12.60;99.90;;;;;;4964665;28;20042;-74
2021/03/26 08:39:39;;;;;;;31.10;19.35;;;12.80;99.90;;;;;;4959788;28;20172;-74
2021/03/26 08:42:11;;;;;;;33.45;20.27;;;12.70;99.90;;;;;;4947759;29;20042;-74
2021/03/26 08:44:37;;;;;;;29.90;17.60;;;12.70;99.90;;;;;;4964383;28;20034;-74
2021/03/26 08:47:11;;;;;;;30.65;19.13;;;12.70;99.90;;;;;;4959815;28;20027;-72
2021/03/26 08:50:01;;;;;;;29.38;17.98;;;12.80;99.90;;;;;;4959847;28;20034;-74
2021/03/26 08:52:35;;;;;;;33.80;18.17;;;12.80;99.90;;;;;;4949562;28;20026;-74
2021/03/26 08:55:20;;;;;;;25.85;15.60;;;12.70;99.90;;;;;;4958542;28;20077;-75
2021/03/26 08:58:02;;;;;;;27.08;16.40;;;12.80;99.90;;;;;;4960665;28;21646;-74
2021/03/26 09:00:59;;;;;;;23.55;14.38;;;12.80;99.90;;;;;;4959620;28;20023;-74
2021/03/26 09:03:49;;;;;;;22.63;13.30;;;12.90;99.90;;;;;;4962081;28;20034;-74
2021/03/26 09:06:23;;;;;;;21.48;13.55;;;13.00;99.90;;;;;;4942074;28;20392;-74
2021/03/26 09:09:26;;;;;;;23.70;13.38;;;13.00;99.90;;;;;;4940193;28;20035;-74
2021/03/26 09:12:11;;;;;;;23.73;13.63;;;13.10;99.90;;;;;;4961726;28;20034;-74
2021/03/26 09:14:52;;;;;;;20.17;13.50;;;13.20;99.90;;;;;;4958688;28;20027;-75
2021/03/26 09:17:42;;;;;;;24.90;14.25;;;13.20;99.90;;;;;;4965338;28;20082;-74
2021/03/26 09:20:25;;;;;;;21.13;10.68;;;13.30;99.90;;;;;;4946226;28;20082;-74
2021/03/26 09:23:12;;;;;;;20.23;10.60;;;13.10;99.90;;;;;;4959955;28;20023;-75
2021/03/26 09:25:40;;;;;;;21.02;11.48;;;13.20;99.90;;;;;;4963920;28;20054;-74
2021/03/26 09:28:21;;;;;;;18.63;11.07;;;13.20;99.90;;;;;;4960962;28;20031;-75
2021/03/26 09:31:10;;;;;;;17.75;10.45;;;13.40;99.90;;;;;;4963058;28;20027;-73
2021/03/26 09:33:39;;;;;;;17.92;9.85;;;13.40;99.90;;;;;;4962085;28;20066;-74
2021/03/26 09:36:17;;;;;;;15.55;9.35;;;13.40;99.90;;;;;;4965983;28;20106;-75
2021/03/26 09:38:48;;;;;;;15.18;7.45;;;13.50;99.90;;;;;;4941971;28;20299;-75
2021/03/26 09:41:25;;;;;;;13.63;8.13;;;13.40;99.90;;;;;;4957411;28;20035;-75
2021/03/26 09:44:27;;;;;;;16.13;8.65;;;13.50;99.90;;;;;;4961830;28;20475;-75
2021/03/26 09:46:55;;;;;;;16.45;8.07;;;13.60;99.90;;;;;;4964164;28;20027;-75
2021/03/26 09:49:36;;;;;;;14.55;8.05;;;13.60;99.90;;;;;;4966870;28;20031;-75
2021/03/26 09:52:24;;;;;;;15.90;7.60;;;13.70;99.90;;;;;;4952538;28;20031;-75
2021/03/26 09:54:53;;;;;;;11.98;7.07;;;13.80;99.90;;;;;;4965818;28;20511;-75
2021/03/26 09:57:48;;;;;;;14.00;7.65;;;13.80;99.90;;;;;;4968830;28;20121;-75
2021/03/26 10:00:48;;;;;;;14.15;6.05;;;13.80;99.90;;;;;;4965372;28;20070;-75
2021/03/26 10:03:26;;;;;;;13.80;6.22;;;14.00;99.90;;;;;;4946236;28;20030;-75
2021/03/26 10:06:04;;;;;;;13.23;5.75;;;14.00;99.90;;;;;;4964172;28;20030;-74
2021/03/26 10:11:46;;;;;;;15.40;5.00;;;14.00;99.90;;;;;;4961921;28;20596;-73
2021/03/26 10:14:16;;;;;;;9.60;4.97;;;14.00;99.90;;;;;;4944746;28;20504;-74
2021/03/26 10:16:52;;;;;;;10.52;5.15;;;14.10;99.90;;;;;;4965869;28;20035;-75
2021/03/26 10:19:40;;;;;;;11.48;5.35;;;14.20;99.90;;;;;;4945866;28;20244;-75
2021/03/26 10:22:27;;;;;;;7.80;5.15;;;14.30;99.90;;;;;;4947189;28;20027;-74
2021/03/26 10:25:06;;;;;;;10.90;5.35;;;14.30;99.90;;;;;;4962783;28;20023;-74
2021/03/26 10:28:10;;;;;;;10.38;5.18;;;14.20;99.90;;;;;;4960035;28;20031;-75
2021/03/26 10:30:42;;;;;;;9.00;5.22;;;14.30;99.90;;;;;;4960547;28;20098;-74
2021/03/26 10:33:11;;;;;;;8.73;4.15;;;14.30;99.90;;;;;;4964199;28;20031;-75
2021/03/26 10:35:40;;;;;;;13.25;4.25;;;14.40;99.90;;;;;;4964764;28;20054;-74
2021/03/26 10:38:11;;;;;;;8.60;3.85;;;14.50;99.90;;;;;;4969158;28;20034;-75
2021/03/26 10:40:47;;;;;;;7.13;3.33;;;14.50;99.90;;;;;;4956811;28;20054;-75
2021/03/26 10:43:25;;;;;;;12.52;4.65;;;14.50;99.90;;;;;;4964375;28;20022;-75
2021/03/26 10:46:04;;;;;;;8.15;3.85;;;14.40;99.90;;;;;;4964753;28;20023;-77
2021/03/26 10:48:53;;;;;;;8.75;4.20;;;14.50;99.90;;;;;;4953215;28;20034;-75
2021/03/26 10:51:30;;;;;;;7.30;4.20;;;14.50;99.90;;;;;;4962980;28;20031;-73
2021/03/26 10:54:16;;;;;;;14.13;5.20;;;14.50;99.90;;;;;;4960134;28;20019;-74
2021/03/26 10:56:55;;;;;;;7.30;4.05;;;14.60;99.90;;;;;;4960156;28;20821;-75
2021/03/26 10:59:45;;;;;;;7.57;3.95;;;14.60;99.90;;;;;;4961633;28;20028;-72
2021/03/26 11:02:22;;;;;;;8.40;3.75;;;14.70;99.90;;;;;;4961210;28;20031;-75
2021/03/26 11:05:06;;;;;;;9.80;4.18;;;14.70;99.90;;;;;;4961222;28;20117;-75
2021/03/26 11:07:48;;;;;;;7.28;3.08;;;14.70;99.90;;;;;;4960554;28;20121;-75
2021/03/26 11:10:21;;;;;;;13.23;3.83;;;14.80;99.90;;;;;;4959344;28;20376;-75
2021/03/26 11:12:56;;;;;;;7.97;2.67;;;14.70;99.90;;;;;;4960371;28;20648;-73
2021/03/26 11:15:31;;;;;;;10.05;3.15;;;14.80;99.90;;;;;;4969178;28;20086;-75
2021/03/26 11:18:12;;;;;;;10.25;3.20;;;14.80;99.90;;;;;;4959474;28;20031;-74
2021/03/26 11:20:43;;;;;;;8.68;4.13;;;14.80;99.90;;;;;;4962412;28;20031;-74
2021/03/26 11:23:11;;;;;;;9.30;4.70;;;14.70;99.90;;;;;;4966489;28;20035;-74
2021/03/26 11:25:44;;;;;;;11.95;5.70;;;14.70;99.90;;;;;;4964642;28;20111;-74
2021/03/26 11:28:17;;;;;;;8.20;4.80;;;14.70;99.90;;;;;;4958095;28;20026;-74
2021/03/26 11:30:46;;;;;;;11.73;4.95;;;14.80;99.90;;;;;;4957002;28;20739;-75
2021/03/26 11:33:30;;;;;;;10.13;5.57;;;14.90;99.90;;;;;;4960689;28;20064;-72
2021/03/26 11:35:58;;;;;;;11.95;7.35;;;14.90;99.90;;;;;;4948076;28;20174;-73
2021/03/26 11:38:28;;;;;;;10.60;4.07;;;14.90;99.90;;;;;;4960627;28;20034;-72
2021/03/26 11:41:15;;;;;;;7.93;3.88;;;14.90;99.90;;;;;;4960534;28;20028;-73
2021/03/26 11:43:49;;;;;;;7.22;4.25;;;14.90;99.90;;;;;;4962994;28;20037;-72
2021/03/26 11:46:21;;;;;;;10.00;4.38;;;15.20;99.90;;;;;;4960534;28;20054;-72
2021/03/26 11:48:56;;;;;;;10.43;4.57;;;15.30;99.90;;;;;;4961038;28;20043;-72
2021/03/26 11:51:36;;;;;;;8.07;3.95;;;15.20;99.90;;;;;;4964816;28;20143;-72
2021/03/26 11:54:26;;;;;;;8.00;3.75;;;15.20;99.90;;;;;;4959007;28;20792;-72
2021/03/26 11:57:23;;;;;;;7.65;4.22;;;15.30;99.90;;;;;;4959726;28;20599;-72
2021/03/26 12:00:33;;;;;;;8.50;4.30;;;15.20;99.90;;;;;;4947169;28;20696;-73
2021/03/26 12:03:12;;;;;;;10.70;4.43;;;15.20;99.90;;;;;;4936008;28;20042;-72
2021/03/26 12:06:17;;;;;;;9.68;4.10;;;15.30;99.90;;;;;;4958351;28;20039;-72
2021/03/26 12:09:07;;;;;;;9.20;4.88;;;15.30;99.90;;;;;;4923642;29;20045;-72
2021/03/26 12:11:57;;;;;;;7.22;4.30;;;15.40;99.90;;;;;;4960924;28;20040;-73
2021/03/26 12:14:29;;;;;;;9.18;4.30;;;15.40;99.90;;;;;;4954057;28;20476;-72
2021/03/26 12:17:07;;;;;;;7.45;4.38;;;15.50;99.90;;;;;;4958319;28;20039;-72
2021/03/26 12:19:37;;;;;;;6.07;4.07;;;15.60;99.90;;;;;;4963624;28;20038;-72
2021/03/26 12:22:08;;;;;;;8.73;4.93;;;15.50;99.90;;;;;;4958448;28;20113;-71
2021/03/26 12:24:43;;;;;;;7.95;4.10;;;15.70;99.90;;;;;;4962000;28;20027;-72
2021/03/26 12:27:08;;;;;;;7.07;3.90;;;16.00;99.90;;;;;;4944600;28;20062;-72
2021/03/26 12:30:05;;;;;;;6.75;3.72;;;16.10;99.90;;;;;;4959026;28;20074;-72
2021/03/26 12:32:44;;;;;;;10.32;3.75;;;16.20;99.90;;;;;;4961603;28;20023;-72
2021/03/26 12:35:24;;;;;;;7.80;4.00;;;16.10;99.90;;;;;;4955337;28;20035;-72
2021/03/26 12:38:29;;;;;;;8.95;3.78;;;15.90;99.90;;;;;;4955000;28;20126;-73
2021/03/26 12:40:54;;;;;;;6.95;3.15;;;15.80;99.90;;;;;;4956606;28;20035;-71
2021/03/26 12:43:20;;;;;;;7.90;3.70;;;16.00;99.90;;;;;;4959945;28;20674;-72
2021/03/26 12:45:58;;;;;;;9.60;4.35;;;16.20;99.90;;;;;;4953711;28;20502;-72
2021/03/26 12:48:53;;;;;;;6.68;3.55;;;16.40;99.90;;;;;;4961878;28;20145;-72
2021/03/26 12:51:28;;;;;;;8.40;3.50;;;16.40;99.90;;;;;;4956295;28;20474;-72
2021/03/26 12:54:07;;;;;;;2.97;2.50;;;16.40;99.90;;;;;;4955035;28;20510;-73
2021/03/26 12:56:40;;;;;;;7.85;3.03;;;16.40;99.90;;;;;;4957820;28;20373;-72
2021/03/26 12:59:25;;;;;;;6.97;2.25;;;16.00;99.90;;;;;;4940543;28;20031;-72
2021/03/26 13:02:03;;;;;;;7.43;2.40;;;16.30;99.90;;;;;;4959667;28;20031;-73
2021/03/26 13:05:00;;;;;;;6.00;2.70;;;16.40;99.90;;;;;;4963583;28;20543;-72
2021/03/26 13:07:41;;;;;;;6.55;3.10;;;16.20;99.90;;;;;;4949815;28;20491;-72
2021/03/26 13:10:42;;;;;;;6.85;2.58;;;16.00;99.90;;;;;;4961202;28;20180;-72
2021/03/26 13:13:23;;;;;;;5.90;2.60;;;16.00;99.90;;;;;;4964572;28;20031;-72
2021/03/26 13:16:19;;;;;;;5.28;2.85;;;16.00;99.90;;;;;;4957534;28;20165;-72
2021/03/26 13:19:00;;;;;;;7.55;3.05;;;16.00;99.90;;;;;;4961331;28;20645;-72
2021/03/26 13:21:34;;;;;;;6.35;3.00;;;16.00;99.90;;;;;;4958038;28;20031;-71
2021/03/26 13:24:37;;;;;;;11.02;2.50;;;15.80;99.90;;;;;;4969221;28;20097;-71
2021/03/26 13:27:15;;;;;;;;;;;15.80;99.90;;;;;;4971760;28;20028;-71
2021/03/26 13:29:46;;;;;;;6.90;2.80;;;15.80;99.90;;;;;;4961487;28;19910;-74
2021/03/26 13:32:12;;;;;;;4.35;2.45;;;15.90;99.90;;;;;;4963714;28;20042;-73
2021/03/26 13:34:40;;;;;;;5.55;2.90;;;16.00;99.90;;;;;;4960052;28;20034;-73
2021/03/26 13:37:18;;;;;;;13.50;10.52;;;16.00;99.90;;;;;;4950758;28;20043;-73
2021/03/26 13:39:53;;;;;;;7.20;3.00;;;15.80;99.90;;;;;;4954169;28;20462;-73